sensor_id;sensor_type;location;lat;lon;timestamp;temperature;humidity
15789;DHT22;59075;50.670;6.474;2022-07-24T05:09:33;22.60;99.90
15789;DHT22;59075;50.670;6.474;2022-07-24T05:12:00;22.60;99.90
15789;DHT22;59075;50.670;6.474;2022-07-24T05:14:26;22.60;99.90
15789;DHT22;59075;50.670;6.474;2022-07-24T05:19:21;22.60;99.90
15789;DHT22;59075;50.670;6.474;2022-07-24T05:24:15;22.60;99.90
15789;DHT22;59075;50.670;6.474;2022-07-24T05:34:03;22.70;99.90
15789;DHT22;59075;50.670;6.474;2022-07-24T05:36:31;22.60;99.90
15789;DHT22;59075;50.670;6.474;2022-07-24T05:38:57;22.60;99.90
15789;DHT22;59075;50.670;6.474;2022-07-24T05:41:24;22.60;99.90
15789;DHT22;59075;50.670;6.474;2022-07-24T05:43:51;22.60;99.90
15789;DHT22;59075;50.670;6.474;2022-07-24T05:46:19;22.60;99.90
15789;DHT22;59075;50.670;6.474;2022-07-24T05:48:46;22.60;99.90
15789;DHT22;59075;50.670;6.474;2022-07-24T05:51:12;22.60;99.90
15789;DHT22;59075;50.670;6.474;2022-07-24T05:53:40;22.60;99.90
15789;DHT22;59075;50.670;6.474;2022-07-24T05:56:07;22.60;99.90
15789;DHT22;59075;50.670;6.474;2022-07-24T05:58:35;22.60;99.90
15789;DHT22;59075;50.670;6.474;2022-07-24T06:01:01;22.70;99.90
15789;DHT22;59075;50.670;6.474;2022-07-24T06:03:28;22.70;99.90
15789;DHT22;59075;50.670;6.474;2022-07-24T06:08:22;22.70;99.90
15789;DHT22;59075;50.670;6.474;2022-07-24T06:10:50;22.70;99.90
15789;DHT22;59075;50.670;6.474;2022-07-24T06:18:11;22.70;99.90
15789;DHT22;59075;50.670;6.474;2022-07-24T06:20:38;22.70;99.90
15789;DHT22;59075;50.670;6.474;2022-07-24T06:23:04;22.80;99.90
15789;DHT22;59075;50.670;6.474;2022-07-24T06:25:31;22.70;99.90
15789;DHT22;59075;50.670;6.474;2022-07-24T06:27:59;22.70;99.90
15789;DHT22;59075;50.670;6.474;2022-07-24T06:30:27;22.70;99.90
15789;DHT22;59075;50.670;6.474;2022-07-24T06:32:55;22.70;99.90
15789;DHT22;59075;50.670;6.474;2022-07-24T06:40:18;22.70;99.90
15789;DHT22;59075;50.670;6.474;2022-07-24T06:42:45;22.70;99.90
15789;DHT22;59075;50.670;6.474;2022-07-24T06:45:14;22.70;99.90
15789;DHT22;59075;50.670;6.474;2022-07-24T06:47:41;22.70;99.90
15789;DHT22;59075;50.670;6.474;2022-07-24T06:50:09;22.70;99.90
15789;DHT22;59075;50.670;6.474;2022-07-24T06:52:36;22.70;99.90
15789;DHT22;59075;50.670;6.474;2022-07-24T06:55:04;22.70;99.90
15789;DHT22;59075;50.670;6.474;2022-07-24T06:57:30;22.70;99.90
15789;DHT22;59075;50.670;6.474;2022-07-24T06:59:57;22.70;99.90
15789;DHT22;59075;50.670;6.474;2022-07-24T07:04:52;22.70;99.90
15789;DHT22;59075;50.670;6.474;2022-07-24T07:07:19;22.70;99.90
15789;DHT22;59075;50.670;6.474;2022-07-24T07:09:46;22.70;99.90
15789;DHT22;59075;50.670;6.474;2022-07-24T07:12:12;22.70;99.90
15789;DHT22;59075;50.670;6.474;2022-07-24T07:17:06;22.80;99.90
15789;DHT22;59075;50.670;6.474;2022-07-24T07:22:01;22.70;99.90
15789;DHT22;59075;50.670;6.474;2022-07-24T07:24:28;22.80;99.90
15789;DHT22;59075;50.670;6.474;2022-07-24T07:26:54;22.80;99.90
15789;DHT22;59075;50.670;6.474;2022-07-24T07:29:21;22.80;99.90
15789;DHT22;59075;50.670;6.474;2022-07-24T07:31:48;22.80;99.90
15789;DHT22;59075;50.670;6.474;2022-07-24T07:34:14;22.80;99.90
15789;DHT22;59075;50.670;6.474;2022-07-24T07:36:42;22.80;99.90
15789;DHT22;59075;50.670;6.474;2022-07-24T07:39:09;22.80;99.90
15789;DHT22;59075;50.670;6.474;2022-07-24T07:41:36;22.90;99.90
15789;DHT22;59075;50.670;6.474;2022-07-24T07:44:03;22.80;99.90
15789;DHT22;59075;50.670;6.474;2022-07-24T07:46:30;22.90;99.90
15789;DHT22;59075;50.670;6.474;2022-07-24T07:51:24;22.90;99.90
15789;DHT22;59075;50.670;6.474;2022-07-24T07:53:52;22.90;99.90
15789;DHT22;59075;50.670;6.474;2022-07-24T07:56:19;23.00;99.90
15789;DHT22;59075;50.670;6.474;2022-07-24T07:58:46;23.00;99.90
15789;DHT22;59075;50.670;6.474;2022-07-24T08:01:12;23.00;99.90
15789;DHT22;59075;50.670;6.474;2022-07-24T08:03:39;23.00;99.90
15789;DHT22;59075;50.670;6.474;2022-07-24T08:06:06;23.10;99.90
15789;DHT22;59075;50.670;6.474;2022-07-24T08:11:01;23.10;99.90
15789;DHT22;59075;50.670;6.474;2022-07-24T08:13:28;23.10;99.90
15789;DHT22;59075;50.670;6.474;2022-07-24T08:15:55;23.10;99.90
15789;DHT22;59075;50.670;6.474;2022-07-24T08:20:48;23.20;99.90
15789;DHT22;59075;50.670;6.474;2022-07-24T08:23:16;23.20;99.90
15789;DHT22;59075;50.670;6.474;2022-07-24T08:25:42;23.20;99.90
15789;DHT22;59075;50.670;6.474;2022-07-24T08:28:10;23.20;99.90
15789;DHT22;59075;50.670;6.474;2022-07-24T08:30:37;23.30;99.90
15789;DHT22;59075;50.670;6.474;2022-07-24T08:33:04;23.30;99.90
15789;DHT22;59075;50.670;6.474;2022-07-24T08:35:31;23.40;99.90
15789;DHT22;59075;50.670;6.474;2022-07-24T08:42:52;23.40;99.90
15789;DHT22;59075;50.670;6.474;2022-07-24T08:45:20;23.50;99.90
15789;DHT22;59075;50.670;6.474;2022-07-24T08:47:50;23.50;99.90
15789;DHT22;59075;50.670;6.474;2022-07-24T08:50:18;23.50;99.90
15789;DHT22;59075;50.670;6.474;2022-07-24T08:52:45;23.50;99.90
15789;DHT22;59075;50.670;6.474;2022-07-24T08:55:12;23.50;99.90
15789;DHT22;59075;50.670;6.474;2022-07-24T08:57:40;23.60;99.90
15789;DHT22;59075;50.670;6.474;2022-07-24T09:00:07;23.60;99.90
15789;DHT22;59075;50.670;6.474;2022-07-24T09:02:36;23.60;99.90
15789;DHT22;59075;50.670;6.474;2022-07-24T09:07:30;23.70;99.90
15789;DHT22;59075;50.670;6.474;2022-07-24T09:09:58;23.70;99.90
15789;DHT22;59075;50.670;6.474;2022-07-24T09:12:25;23.70;99.90
15789;DHT22;59075;50.670;6.474;2022-07-24T09:14:56;23.80;99.90
15789;DHT22;59075;50.670;6.474;2022-07-24T09:17:23;23.80;99.90
15789;DHT22;59075;50.670;6.474;2022-07-24T09:19:52;23.90;99.90
15789;DHT22;59075;50.670;6.474;2022-07-24T09:22:31;23.90;99.90
15789;DHT22;59075;50.670;6.474;2022-07-24T09:25:07;23.90;99.90
15789;DHT22;59075;50.670;6.474;2022-07-24T09:27:34;23.90;99.90
15789;DHT22;59075;50.670;6.474;2022-07-24T09:30:03;23.90;99.90
15789;DHT22;59075;50.670;6.474;2022-07-24T09:32:30;23.90;99.90
15789;DHT22;59075;50.670;6.474;2022-07-24T09:34:59;23.90;99.90
15789;DHT22;59075;50.670;6.474;2022-07-24T09:37:26;23.90;99.90
15789;DHT22;59075;50.670;6.474;2022-07-24T09:40:06;24.00;99.90
15789;DHT22;59075;50.670;6.474;2022-07-24T09:42:34;24.00;99.90
15789;DHT22;59075;50.670;6.474;2022-07-24T09:47:34;24.00;99.90
15789;DHT22;59075;50.670;6.474;2022-07-24T09:52:40;24.10;99.90
15789;DHT22;59075;50.670;6.474;2022-07-24T09:55:20;24.10;99.90
15789;DHT22;59075;50.670;6.474;2022-07-24T10:00:16;24.20;99.90
15789;DHT22;59075;50.670;6.474;2022-07-24T10:02:44;24.20;99.90
15789;DHT22;59075;50.670;6.474;2022-07-24T10:05:13;24.20;99.90
15789;DHT22;59075;50.670;6.474;2022-07-24T10:07:41;24.30;99.90
15789;DHT22;59075;50.670;6.474;2022-07-24T10:10:09;24.30;99.90
15789;DHT22;59075;50.670;6.474;2022-07-24T10:12:38;24.30;99.90
15789;DHT22;59075;50.670;6.474;2022-07-24T10:15:06;24.30;99.90
15789;DHT22;59075;50.670;6.474;2022-07-24T10:20:40;24.40;99.90
15789;DHT22;59075;50.670;6.474;2022-07-24T10:23:08;24.40;99.90
15789;DHT22;59075;50.670;6.474;2022-07-24T10:25:53;24.50;99.90
15789;DHT22;59075;50.670;6.474;2022-07-24T10:28:34;24.50;99.90
15789;DHT22;59075;50.670;6.474;2022-07-24T10:31:03;24.50;99.90
15789;DHT22;59075;50.670;6.474;2022-07-24T10:33:30;24.60;99.90
15789;DHT22;59075;50.670;6.474;2022-07-24T10:36:00;24.60;99.90
15789;DHT22;59075;50.670;6.474;2022-07-24T10:38:33;24.60;99.90
15789;DHT22;59075;50.670;6.474;2022-07-24T10:43:29;24.70;99.90
15789;DHT22;59075;50.670;6.474;2022-07-24T10:48:40;24.70;99.90
15789;DHT22;59075;50.670;6.474;2022-07-24T10:51:10;24.70;99.90
15789;DHT22;59075;50.670;6.474;2022-07-24T10:58:57;24.80;99.90
15789;DHT22;59075;50.670;6.474;2022-07-24T11:03:59;24.90;99.90
15789;DHT22;59075;50.670;6.474;2022-07-24T11:09:06;24.90;99.90
15789;DHT22;59075;50.670;6.474;2022-07-24T11:11:33;24.80;99.90
15789;DHT22;59075;50.670;6.474;2022-07-24T11:14:05;24.90;99.90
15789;DHT22;59075;50.670;6.474;2022-07-24T11:16:33;24.90;99.90
15789;DHT22;59075;50.670;6.474;2022-07-24T11:21:47;24.90;99.90
15789;DHT22;59075;50.670;6.474;2022-07-24T11:24:15;24.90;99.90
15789;DHT22;59075;50.670;6.474;2022-07-24T11:29:13;25.00;99.90
15789;DHT22;59075;50.670;6.474;2022-07-24T11:31:40;24.90;99.90
15789;DHT22;59075;50.670;6.474;2022-07-24T11:34:09;25.00;99.90
15789;DHT22;59075;50.670;6.474;2022-07-24T11:36:39;25.00;99.90
15789;DHT22;59075;50.670;6.474;2022-07-24T11:39:08;25.00;99.90
15789;DHT22;59075;50.670;6.474;2022-07-24T11:41:43;25.00;99.90
15789;DHT22;59075;50.670;6.474;2022-07-24T11:44:11;25.00;99.90
15789;DHT22;59075;50.670;6.474;2022-07-24T11:46:40;25.00;99.90
15789;DHT22;59075;50.670;6.474;2022-07-24T11:49:08;25.00;99.90
15789;DHT22;59075;50.670;6.474;2022-07-24T11:51:41;25.00;99.90
15789;DHT22;59075;50.670;6.474;2022-07-24T11:54:11;25.10;99.90
15789;DHT22;59075;50.670;6.474;2022-07-24T11:56:38;25.10;99.90
15789;DHT22;59075;50.670;6.474;2022-07-24T11:59:05;25.10;99.90
15789;DHT22;59075;50.670;6.474;2022-07-24T12:01:32;25.10;99.90
15789;DHT22;59075;50.670;6.474;2022-07-24T12:03:59;25.10;99.90
15789;DHT22;59075;50.670;6.474;2022-07-24T12:06:26;25.10;99.90
15789;DHT22;59075;50.670;6.474;2022-07-24T12:08:57;25.20;99.90
15789;DHT22;59075;50.670;6.474;2022-07-24T12:11:25;25.10;99.90
15789;DHT22;59075;50.670;6.474;2022-07-24T12:13:51;25.20;99.90
15789;DHT22;59075;50.670;6.474;2022-07-24T12:16:23;25.20;99.90
15789;DHT22;59075;50.670;6.474;2022-07-24T12:23:45;25.20;99.90
15789;DHT22;59075;50.670;6.474;2022-07-24T12:26:12;25.20;99.90
15789;DHT22;59075;50.670;6.474;2022-07-24T12:28:40;25.20;99.90
15789;DHT22;59075;50.670;6.474;2022-07-24T12:31:07;25.20;99.90
15789;DHT22;59075;50.670;6.474;2022-07-24T12:33:35;25.20;99.90
15789;DHT22;59075;50.670;6.474;2022-07-24T12:36:03;25.20;99.90
15789;DHT22;59075;50.670;6.474;2022-07-24T12:41:06;25.20;99.90
15789;DHT22;59075;50.670;6.474;2022-07-24T12:43:33;25.30;99.90
15789;DHT22;59075;50.670;6.474;2022-07-24T12:46:09;25.30;99.90
15789;DHT22;59075;50.670;6.474;2022-07-24T12:48:36;25.30;99.90
15789;DHT22;59075;50.670;6.474;2022-07-24T12:51:05;25.40;99.90
15789;DHT22;59075;50.670;6.474;2022-07-24T12:53:35;25.40;99.90
15789;DHT22;59075;50.670;6.474;2022-07-24T12:56:08;25.40;99.90
15789;DHT22;59075;50.670;6.474;2022-07-24T12:58:53;25.40;99.90
15789;DHT22;59075;50.670;6.474;2022-07-24T13:01:24;25.40;99.90
15789;DHT22;59075;50.670;6.474;2022-07-24T13:03:54;25.40;99.90
15789;DHT22;59075;50.670;6.474;2022-07-24T13:06:32;25.40;99.90
15789;DHT22;59075;50.670;6.474;2022-07-24T13:11:26;25.50;99.90
15789;DHT22;59075;50.670;6.474;2022-07-24T13:13:53;25.50;99.90
15789;DHT22;59075;50.670;6.474;2022-07-24T13:16:19;25.50;99.90
15789;DHT22;59075;50.670;6.474;2022-07-24T13:18:50;25.50;99.90
15789;DHT22;59075;50.670;6.474;2022-07-24T13:23:45;25.50;99.90
15789;DHT22;59075;50.670;6.474;2022-07-24T13:26:12;25.50;99.90
15789;DHT22;59075;50.670;6.474;2022-07-24T13:28:38;25.60;99.90
15789;DHT22;59075;50.670;6.474;2022-07-24T13:31:06;25.60;99.90
15789;DHT22;59075;50.670;6.474;2022-07-24T13:33:32;25.60;99.90
15789;DHT22;59075;50.670;6.474;2022-07-24T13:36:00;25.60;99.90
15789;DHT22;59075;50.670;6.474;2022-07-24T13:38:27;25.60;99.90
15789;DHT22;59075;50.670;6.474;2022-07-24T13:40:54;25.60;99.90
15789;DHT22;59075;50.670;6.474;2022-07-24T13:43:20;25.60;99.90
15789;DHT22;59075;50.670;6.474;2022-07-24T13:45:47;25.60;99.90
15789;DHT22;59075;50.670;6.474;2022-07-24T13:48:15;25.60;99.90
15789;DHT22;59075;50.670;6.474;2022-07-24T13:50:41;25.60;99.90
15789;DHT22;59075;50.670;6.474;2022-07-24T13:53:09;25.70;99.90
15789;DHT22;59075;50.670;6.474;2022-07-24T13:55:36;25.70;99.90
15789;DHT22;59075;50.670;6.474;2022-07-24T13:58:03;25.70;99.90
15789;DHT22;59075;50.670;6.474;2022-07-24T14:00:29;25.70;99.90
15789;DHT22;59075;50.670;6.474;2022-07-24T14:02:56;25.70;99.90
15789;DHT22;59075;50.670;6.474;2022-07-24T14:05:23;25.80;99.90
15789;DHT22;59075;50.670;6.474;2022-07-24T14:07:50;25.80;99.90
15789;DHT22;59075;50.670;6.474;2022-07-24T14:10:19;25.80;99.90
15789;DHT22;59075;50.670;6.474;2022-07-24T14:12:47;25.80;99.90
15789;DHT22;59075;50.670;6.474;2022-07-24T14:15:14;25.80;99.90
15789;DHT22;59075;50.670;6.474;2022-07-24T14:17:42;25.80;99.90
15789;DHT22;59075;50.670;6.474;2022-07-24T14:20:10;25.80;99.90
15789;DHT22;59075;50.670;6.474;2022-07-24T14:22:38;25.80;99.90
15789;DHT22;59075;50.670;6.474;2022-07-24T14:25:06;25.80;99.90
15789;DHT22;59075;50.670;6.474;2022-07-24T14:27:35;25.80;99.90
15789;DHT22;59075;50.670;6.474;2022-07-24T14:30:03;25.90;99.90
15789;DHT22;59075;50.670;6.474;2022-07-24T14:32:30;25.90;99.90
15789;DHT22;59075;50.670;6.474;2022-07-24T14:37:25;25.90;99.90
15789;DHT22;59075;50.670;6.474;2022-07-24T14:39:52;25.90;99.90
15789;DHT22;59075;50.670;6.474;2022-07-24T14:42:19;25.90;99.90
15789;DHT22;59075;50.670;6.474;2022-07-24T14:47:14;26.00;99.90
15789;DHT22;59075;50.670;6.474;2022-07-24T14:49:40;26.00;99.90
15789;DHT22;59075;50.670;6.474;2022-07-24T14:52:07;26.00;99.90
15789;DHT22;59075;50.670;6.474;2022-07-24T14:54:34;26.00;99.90
15789;DHT22;59075;50.670;6.474;2022-07-24T14:57:00;26.00;99.90
15789;DHT22;59075;50.670;6.474;2022-07-24T14:59:28;26.00;99.90
15789;DHT22;59075;50.670;6.474;2022-07-24T15:01:56;26.10;99.90
15789;DHT22;59075;50.670;6.474;2022-07-24T15:04:22;26.10;99.90
15789;DHT22;59075;50.670;6.474;2022-07-24T15:06:49;26.00;99.90
15789;DHT22;59075;50.670;6.474;2022-07-24T15:09:16;26.10;99.90
15789;DHT22;59075;50.670;6.474;2022-07-24T15:11:42;26.10;99.90
15789;DHT22;59075;50.670;6.474;2022-07-24T15:14:09;26.00;99.90
15789;DHT22;59075;50.670;6.474;2022-07-24T15:16:36;26.10;99.90
15789;DHT22;59075;50.670;6.474;2022-07-24T15:19:04;26.10;99.90
15789;DHT22;59075;50.670;6.474;2022-07-24T15:21:31;26.10;99.90
15789;DHT22;59075;50.670;6.474;2022-07-24T15:23:57;26.10;99.90
15789;DHT22;59075;50.670;6.474;2022-07-24T15:26:24;26.10;99.90
15789;DHT22;59075;50.670;6.474;2022-07-24T15:28:51;26.10;99.90
15789;DHT22;59075;50.670;6.474;2022-07-24T15:31:17;26.20;99.90
15789;DHT22;59075;50.670;6.474;2022-07-24T15:33:45;26.20;99.90
15789;DHT22;59075;50.670;6.474;2022-07-24T15:36:13;26.20;99.90
15789;DHT22;59075;50.670;6.474;2022-07-24T15:38:39;26.20;99.90
15789;DHT22;59075;50.670;6.474;2022-07-24T15:41:07;26.20;99.90
15789;DHT22;59075;50.670;6.474;2022-07-24T15:43:33;26.20;99.90
15789;DHT22;59075;50.670;6.474;2022-07-24T15:46:00;26.20;99.90
15789;DHT22;59075;50.670;6.474;2022-07-24T15:48:27;26.20;99.90
15789;DHT22;59075;50.670;6.474;2022-07-24T15:50:54;26.20;99.90
15789;DHT22;59075;50.670;6.474;2022-07-24T15:53:22;26.20;99.90
15789;DHT22;59075;50.670;6.474;2022-07-24T15:55:49;26.20;99.90
15789;DHT22;59075;50.670;6.474;2022-07-24T15:58:15;26.20;99.90
15789;DHT22;59075;50.670;6.474;2022-07-24T16:00:42;26.20;99.90
15789;DHT22;59075;50.670;6.474;2022-07-24T16:05:36;26.20;99.90
15789;DHT22;59075;50.670;6.474;2022-07-24T16:08:04;26.20;99.90
15789;DHT22;59075;50.670;6.474;2022-07-24T16:10:32;26.20;99.90
15789;DHT22;59075;50.670;6.474;2022-07-24T16:12:59;26.20;99.90
15789;DHT22;59075;50.670;6.474;2022-07-24T16:15:26;26.30;99.90
15789;DHT22;59075;50.670;6.474;2022-07-24T16:17:52;26.20;99.90
15789;DHT22;59075;50.670;6.474;2022-07-24T16:20:19;26.30;99.90
15789;DHT22;59075;50.670;6.474;2022-07-24T16:22:46;26.30;99.90
15789;DHT22;59075;50.670;6.474;2022-07-24T16:25:12;26.30;99.90
15789;DHT22;59075;50.670;6.474;2022-07-24T16:27:40;26.30;99.90
15789;DHT22;59075;50.670;6.474;2022-07-24T16:30:08;26.30;99.90
15789;DHT22;59075;50.670;6.474;2022-07-24T16:32:35;26.30;99.90
15789;DHT22;59075;50.670;6.474;2022-07-24T16:37:29;26.30;99.90
15789;DHT22;59075;50.670;6.474;2022-07-24T16:39:58;26.30;99.90
15789;DHT22;59075;50.670;6.474;2022-07-24T16:42:25;26.40;99.90
15789;DHT22;59075;50.670;6.474;2022-07-24T16:44:53;26.30;99.90
15789;DHT22;59075;50.670;6.474;2022-07-24T16:47:19;26.40;99.90
15789;DHT22;59075;50.670;6.474;2022-07-24T16:49:46;26.40;99.90
15789;DHT22;59075;50.670;6.474;2022-07-24T16:52:13;26.40;99.90
15789;DHT22;59075;50.670;6.474;2022-07-24T16:54:40;26.40;99.90
15789;DHT22;59075;50.670;6.474;2022-07-24T16:59:34;26.50;99.90
15789;DHT22;59075;50.670;6.474;2022-07-24T17:02:03;26.50;99.90
15789;DHT22;59075;50.670;6.474;2022-07-24T17:04:29;26.50;99.90
15789;DHT22;59075;50.670;6.474;2022-07-24T17:06:56;26.50;99.90
15789;DHT22;59075;50.670;6.474;2022-07-24T17:09:23;26.50;99.90
15789;DHT22;59075;50.670;6.474;2022-07-24T17:14:19;26.50;99.90
15789;DHT22;59075;50.670;6.474;2022-07-24T17:16:46;26.50;99.90
15789;DHT22;59075;50.670;6.474;2022-07-24T17:19:14;26.50;99.90
15789;DHT22;59075;50.670;6.474;2022-07-24T17:21:41;26.50;99.90
15789;DHT22;59075;50.670;6.474;2022-07-24T17:24:08;26.50;99.90
15789;DHT22;59075;50.670;6.474;2022-07-24T17:26:35;26.60;99.90
15789;DHT22;59075;50.670;6.474;2022-07-24T17:29:02;26.60;99.90
15789;DHT22;59075;50.670;6.474;2022-07-24T17:31:28;26.60;99.90
15789;DHT22;59075;50.670;6.474;2022-07-24T17:33:55;26.60;99.90
15789;DHT22;59075;50.670;6.474;2022-07-24T17:36:23;26.60;99.90
15789;DHT22;59075;50.670;6.474;2022-07-24T17:38:50;26.60;99.90
15789;DHT22;59075;50.670;6.474;2022-07-24T17:41:16;26.60;99.90
15789;DHT22;59075;50.670;6.474;2022-07-24T17:43:43;26.60;99.90
15789;DHT22;59075;50.670;6.474;2022-07-24T17:48:37;26.60;99.90
15789;DHT22;59075;50.670;6.474;2022-07-24T17:51:04;26.60;99.90
15789;DHT22;59075;50.670;6.474;2022-07-24T17:53:33;26.60;99.90
15789;DHT22;59075;50.670;6.474;2022-07-24T17:55:59;26.60;99.90
15789;DHT22;59075;50.670;6.474;2022-07-24T17:58:26;26.60;99.90
15789;DHT22;59075;50.670;6.474;2022-07-24T18:00:53;26.60;99.90
15789;DHT22;59075;50.670;6.474;2022-07-24T18:03:20;26.60;99.90
15789;DHT22;59075;50.670;6.474;2022-07-24T18:05:47;26.60;99.90
15789;DHT22;59075;50.670;6.474;2022-07-24T18:08:13;26.60;99.90
15789;DHT22;59075;50.670;6.474;2022-07-24T18:10:41;26.60;99.90
15789;DHT22;59075;50.670;6.474;2022-07-24T18:13:08;26.60;99.90
15789;DHT22;59075;50.670;6.474;2022-07-24T18:15:35;26.60;99.90
15789;DHT22;59075;50.670;6.474;2022-07-24T18:18:02;26.60;99.90
15789;DHT22;59075;50.670;6.474;2022-07-24T18:20:28;26.60;99.90
15789;DHT22;59075;50.670;6.474;2022-07-24T18:22:55;26.60;99.90
15789;DHT22;59075;50.670;6.474;2022-07-24T18:25:22;26.60;99.90
15789;DHT22;59075;50.670;6.474;2022-07-24T18:27:50;26.60;99.90
15789;DHT22;59075;50.670;6.474;2022-07-24T18:30:17;26.60;99.90
15789;DHT22;59075;50.670;6.474;2022-07-24T18:32:45;26.60;99.90
15789;DHT22;59075;50.670;6.474;2022-07-24T18:37:39;26.60;99.90
15789;DHT22;59075;50.670;6.474;2022-07-24T18:40:07;26.60;99.90
15789;DHT22;59075;50.670;6.474;2022-07-24T18:42:34;26.60;99.90
15789;DHT22;59075;50.670;6.474;2022-07-24T18:45:02;26.60;99.90
15789;DHT22;59075;50.670;6.474;2022-07-24T18:47:29;26.60;99.90
15789;DHT22;59075;50.670;6.474;2022-07-24T18:49:56;26.60;99.90
15789;DHT22;59075;50.670;6.474;2022-07-24T18:52:22;26.60;99.90
15789;DHT22;59075;50.670;6.474;2022-07-24T18:54:49;26.60;99.90
15789;DHT22;59075;50.670;6.474;2022-07-24T18:59:43;26.50;99.90
15789;DHT22;59075;50.670;6.474;2022-07-24T19:02:11;26.50;99.90
15789;DHT22;59075;50.670;6.474;2022-07-24T19:04:38;26.50;99.90
15789;DHT22;59075;50.670;6.474;2022-07-24T19:09:33;26.50;99.90
15789;DHT22;59075;50.670;6.474;2022-07-24T19:12:00;26.50;99.90
15789;DHT22;59075;50.670;6.474;2022-07-24T19:14:27;26.50;99.90
15789;DHT22;59075;50.670;6.474;2022-07-24T19:16:54;26.50;99.90
15789;DHT22;59075;50.670;6.474;2022-07-24T19:21:49;26.50;99.90
15789;DHT22;59075;50.670;6.474;2022-07-24T19:24:16;26.40;99.90
15789;DHT22;59075;50.670;6.474;2022-07-24T19:26:43;26.40;99.90
15789;DHT22;59075;50.670;6.474;2022-07-24T19:29:10;26.40;99.90
15789;DHT22;59075;50.670;6.474;2022-07-24T19:31:36;26.40;99.90
15789;DHT22;59075;50.670;6.474;2022-07-24T19:34:03;26.40;99.90
15789;DHT22;59075;50.670;6.474;2022-07-24T19:36:31;26.40;99.90
15789;DHT22;59075;50.670;6.474;2022-07-24T19:41:25;26.40;99.90
15789;DHT22;59075;50.670;6.474;2022-07-24T19:43:52;26.40;99.90
15789;DHT22;59075;50.670;6.474;2022-07-24T19:46:19;26.30;99.90
15789;DHT22;59075;50.670;6.474;2022-07-24T19:48:46;26.30;99.90
15789;DHT22;59075;50.670;6.474;2022-07-24T19:51:13;26.30;99.90
15789;DHT22;59075;50.670;6.474;2022-07-24T19:53:41;26.30;99.90
15789;DHT22;59075;50.670;6.474;2022-07-24T19:56:08;26.30;99.90
15789;DHT22;59075;50.670;6.474;2022-07-24T19:58:35;26.30;99.90
15789;DHT22;59075;50.670;6.474;2022-07-24T20:03:28;26.20;99.90
15789;DHT22;59075;50.670;6.474;2022-07-24T20:05:55;26.20;99.90
15789;DHT22;59075;50.670;6.474;2022-07-24T20:08:22;26.20;99.90
15789;DHT22;59075;50.670;6.474;2022-07-24T20:10:50;26.20;99.90
15789;DHT22;59075;50.670;6.474;2022-07-24T20:13:17;26.20;99.90
15789;DHT22;59075;50.670;6.474;2022-07-24T20:15:44;26.20;99.90
15789;DHT22;59075;50.670;6.474;2022-07-24T20:18:11;26.20;99.90
15789;DHT22;59075;50.670;6.474;2022-07-24T20:23:05;26.20;99.90
15789;DHT22;59075;50.670;6.474;2022-07-24T20:25:32;26.10;99.90
15789;DHT22;59075;50.670;6.474;2022-07-24T20:28:00;26.10;99.90
15789;DHT22;59075;50.670;6.474;2022-07-24T20:30:27;26.10;99.90
15789;DHT22;59075;50.670;6.474;2022-07-24T20:32:54;26.10;99.90
15789;DHT22;59075;50.670;6.474;2022-07-24T20:35:20;26.10;99.90
15789;DHT22;59075;50.670;6.474;2022-07-24T20:37:47;26.10;99.90
15789;DHT22;59075;50.670;6.474;2022-07-24T20:40:15;26.10;99.90
15789;DHT22;59075;50.670;6.474;2022-07-24T20:42:42;26.00;99.90
15789;DHT22;59075;50.670;6.474;2022-07-24T20:45:10;26.00;99.90
15789;DHT22;59075;50.670;6.474;2022-07-24T20:47:37;26.00;99.90
15789;DHT22;59075;50.670;6.474;2022-07-24T20:50:05;26.00;99.90
15789;DHT22;59075;50.670;6.474;2022-07-24T20:52:32;26.00;99.90
15789;DHT22;59075;50.670;6.474;2022-07-24T20:54:59;26.00;99.90
15789;DHT22;59075;50.670;6.474;2022-07-24T20:57:25;26.00;99.90
15789;DHT22;59075;50.670;6.474;2022-07-24T20:59:53;26.00;99.90
